Time;durP1;ratioP1;P1;durP2;ratioP2;P2;SDS_P1;SDS_P2;PMS_P1;PMS_P2;Temp;Humidity;BMP_temperature;BMP_pressure;BME280_temperature;BME280_humidity;BME280_pressure;Samples;Min_cycle;Max_cycle;Signal;HPM_P1;HPM_P2
2022/10/18 00:00:38;;;;;;;11.43;8.05;;;12.40;99.90;;;;;;5038873;28;20036;-59
2022/10/18 00:03:04;;;;;;;11.05;7.13;;;12.30;99.90;;;;;;5043721;28;20185;-58
2022/10/18 00:05:29;;;;;;;15.85;8.38;;;12.30;99.90;;;;;;5040697;28;20108;-59
2022/10/18 00:07:55;;;;;;;15.00;11.98;;;12.20;99.90;;;;;;5042167;28;20523;-59
2022/10/18 00:10:23;;;;;;;12.07;10.00;;;12.30;99.90;;;;;;5037937;28;20026;-60
2022/10/18 00:12:48;;;;;;;16.98;8.63;;;12.30;99.90;;;;;;5036609;28;20362;-59
2022/10/18 00:15:14;;;;;;;15.50;8.43;;;12.20;99.90;;;;;;5039069;28;20040;-60
2022/10/18 00:17:39;;;;;;;39.53;7.43;;;12.10;99.90;;;;;;5037677;28;20087;-60
2022/10/18 00:20:06;;;;;;;12.90;6.78;;;12.10;99.90;;;;;;5041487;28;20188;-60
2022/10/18 00:22:34;;;;;;;12.65;7.35;;;12.10;99.90;;;;;;5038685;28;20543;-60
2022/10/18 00:25:00;;;;;;;10.82;8.98;;;12.00;99.90;;;;;;5042021;28;20036;-60
2022/10/18 00:27:28;;;;;;;9.40;8.23;;;12.00;99.90;;;;;;5038696;28;20088;-59
2022/10/18 00:29:54;;;;;;;9.57;8.52;;;12.00;99.90;;;;;;5039449;28;20041;-59
2022/10/18 00:32:20;;;;;;;11.40;8.30;;;12.00;99.90;;;;;;5037346;28;20052;-60
2022/10/18 00:34:45;;;;;;;8.32;7.60;;;12.00;99.90;;;;;;5036358;28;20032;-59
2022/10/18 00:37:11;;;;;;;26.65;7.65;;;12.00;99.90;;;;;;5037596;28;20026;-60
2022/10/18 00:39:37;;;;;;;9.35;6.72;;;11.90;99.90;;;;;;5038251;28;20056;-59
2022/10/18 00:42:03;;;;;;;8.55;7.85;;;11.90;99.90;;;;;;5038644;28;20038;-60
2022/10/18 00:44:28;;;;;;;7.68;7.13;;;11.90;99.90;;;;;;5040125;28;20534;-59
2022/10/18 00:47:07;;;;;;;7.78;7.18;;;11.90;99.90;;;;;;5037705;28;20105;-59
2022/10/18 00:49:37;;;;;;;8.68;7.57;;;11.80;99.90;;;;;;5036072;28;20524;-59
2022/10/18 00:52:10;;;;;;;12.03;7.93;;;11.80;99.90;;;;;;5037178;28;20123;-59
2022/10/18 00:54:40;;;;;;;11.32;7.82;;;11.80;99.90;;;;;;5039174;28;21205;-60
2022/10/18 00:57:06;;;;;;;9.93;7.47;;;11.80;99.90;;;;;;5037840;28;20045;-60
2022/10/18 00:59:33;;;;;;;12.90;7.35;;;11.70;99.90;;;;;;5037681;28;20394;-59
2022/10/18 01:01:59;;;;;;;7.50;5.95;;;11.70;99.90;;;;;;5036936;28;20044;-60
2022/10/18 01:04:25;;;;;;;6.45;6.00;;;11.70;99.90;;;;;;5039833;28;20418;-60
2022/10/18 01:07:13;;;;;;;10.48;7.25;;;11.60;99.90;;;;;;5040824;28;20071;-59
2022/10/18 01:10:01;;;;;;;17.48;10.93;;;11.60;99.90;;;;;;5032464;28;20481;-60
2022/10/18 01:13:04;;;;;;;14.40;9.88;;;11.70;99.90;;;;;;5037996;28;20025;-60
2022/10/18 01:15:39;;;;;;;16.48;11.48;;;11.70;99.90;;;;;;5035763;28;20025;-60
2022/10/18 01:18:05;;;;;;;12.13;10.63;;;11.80;99.90;;;;;;5039113;28;20040;-59
2022/10/18 01:20:34;;;;;;;16.60;11.00;;;11.80;99.90;;;;;;5038073;28;20029;-60
2022/10/18 01:23:09;;;;;;;13.75;11.40;;;11.80;99.90;;;;;;5041365;28;20048;-59
2022/10/18 01:25:48;;;;;;;13.85;10.88;;;11.90;99.90;;;;;;5037133;28;20049;-59
2022/10/18 01:28:35;;;;;;;17.45;10.30;;;11.90;99.90;;;;;;5035288;28;20046;-59
2022/10/18 01:31:04;;;;;;;11.70;10.23;;;11.90;99.90;;;;;;5036626;28;20044;-59
2022/10/18 01:33:36;;;;;;;84.40;12.60;;;11.90;99.90;;;;;;5039381;28;20074;-59
2022/10/18 01:36:09;;;;;;;11.80;10.68;;;11.90;99.90;;;;;;5044627;28;20022;-60
2022/10/18 01:38:37;;;;;;;13.38;11.88;;;11.90;99.90;;;;;;5041714;28;20029;-59
2022/10/18 01:41:05;;;;;;;16.42;10.77;;;11.90;99.90;;;;;;5042930;28;20493;-60
2022/10/18 01:43:32;;;;;;;14.25;11.98;;;11.90;99.90;;;;;;5042319;28;20040;-59
2022/10/18 01:45:59;;;;;;;16.60;13.25;;;12.00;99.90;;;;;;5045643;28;20651;-59
2022/10/18 01:48:25;;;;;;;25.85;16.20;;;12.00;99.90;;;;;;5040824;28;20052;-60
2022/10/18 01:50:52;;;;;;;20.42;14.18;;;12.10;99.90;;;;;;5043945;28;20044;-60
2022/10/18 01:53:29;;;;;;;20.35;15.80;;;12.10;99.90;;;;;;5040362;28;20030;-60
2022/10/18 01:56:29;;;;;;;15.70;13.18;;;12.10;99.90;;;;;;5040368;28;20029;-60
2022/10/18 01:58:58;;;;;;;19.30;13.20;;;12.10;99.90;;;;;;5042988;28;20018;-59
2022/10/18 02:01:26;;;;;;;23.55;13.48;;;12.00;99.90;;;;;;5038564;28;20025;-59
2022/10/18 02:03:55;;;;;;;14.15;12.77;;;12.00;99.90;;;;;;5043113;28;20059;-60
2022/10/18 02:06:27;;;;;;;17.58;14.50;;;12.00;99.90;;;;;;5044144;28;20075;-59
2022/10/18 02:09:06;;;;;;;23.88;15.77;;;12.00;99.90;;;;;;5048854;28;20029;-60
2022/10/18 02:11:35;;;;;;;16.92;12.15;;;12.00;99.90;;;;;;5040410;28;20021;-59
2022/10/18 02:14:10;;;;;;;16.58;10.20;;;11.90;99.90;;;;;;5041800;28;20060;-59
2022/10/18 02:16:40;;;;;;;18.75;8.75;;;11.90;99.90;;;;;;5043362;28;20028;-58
2022/10/18 02:19:28;;;;;;;12.15;8.07;;;11.80;99.90;;;;;;5043592;28;20033;-59
2022/10/18 02:21:57;;;;;;;16.85;9.32;;;11.70;99.90;;;;;;5039856;28;20025;-60
2022/10/18 02:24:28;;;;;;;70.43;12.32;;;11.60;99.90;;;;;;5043785;28;20537;-59
2022/10/18 02:26:54;;;;;;;44.05;10.70;;;11.50;99.90;;;;;;5038463;28;20034;-60
2022/10/18 02:29:20;;;;;;;9.75;8.73;;;11.40;99.90;;;;;;5042170;28;20037;-60
2022/10/18 02:31:48;;;;;;;7.88;6.85;;;11.30;99.90;;;;;;5042738;28;20493;-59
2022/10/18 02:34:31;;;;;;;9.00;8.20;;;11.20;99.90;;;;;;5039797;28;20075;-59
2022/10/18 02:37:00;;;;;;;8.77;8.02;;;11.30;99.90;;;;;;5042779;28;20111;-60
2022/10/18 02:39:33;;;;;;;14.93;8.50;;;11.30;99.90;;;;;;5042739;28;20045;-60
2022/10/18 02:41:59;;;;;;;10.10;8.80;;;11.30;99.90;;;;;;5035435;28;20033;-60
2022/10/18 02:44:25;;;;;;;5.82;5.22;;;11.30;99.90;;;;;;5030436;28;20167;-60
2022/10/18 02:46:51;;;;;;;5.55;5.15;;;11.10;99.90;;;;;;5040710;28;20116;-59
2022/10/18 02:49:17;;;;;;;6.38;5.78;;;11.10;99.90;;;;;;5041477;28;20114;-58
2022/10/18 02:51:42;;;;;;;26.27;8.48;;;11.00;99.90;;;;;;5036872;28;20070;-59
2022/10/18 02:54:08;;;;;;;27.85;8.85;;;11.00;99.90;;;;;;5036196;28;21219;-59
2022/10/18 02:56:34;;;;;;;88.93;9.93;;;11.00;99.90;;;;;;5040890;28;20603;-58
2022/10/18 02:59:00;;;;;;;8.15;7.55;;;11.00;99.90;;;;;;5043728;28;20036;-59
2022/10/18 03:01:26;;;;;;;10.25;7.70;;;10.90;99.90;;;;;;5045193;28;20016;-59
2022/10/18 03:03:52;;;;;;;19.20;8.35;;;10.90;99.90;;;;;;5037607;28;20042;-58
2022/10/18 03:06:17;;;;;;;8.13;7.32;;;11.00;99.90;;;;;;5042923;28;20104;-60
2022/10/18 03:08:43;;;;;;;18.40;7.35;;;11.00;99.90;;;;;;5040340;28;20033;-59
2022/10/18 03:11:09;;;;;;;9.20;7.07;;;11.00;99.90;;;;;;5042402;28;20021;-59
2022/10/18 03:13:34;;;;;;;6.43;5.63;;;11.00;99.90;;;;;;5044207;28;20021;-61
2022/10/18 03:16:00;;;;;;;6.35;5.85;;;11.00;99.90;;;;;;5037520;28;20033;-59
2022/10/18 03:18:26;;;;;;;6.10;5.50;;;11.00;99.90;;;;;;5036615;28;20022;-60
2022/10/18 03:20:52;;;;;;;8.70;6.05;;;10.90;99.90;;;;;;5041480;28;20039;-59
2022/10/18 03:23:17;;;;;;;33.72;7.22;;;10.90;99.90;;;;;;5041512;28;20057;-60
2022/10/18 03:25:44;;;;;;;23.13;6.55;;;10.90;99.90;;;;;;5040444;28;20012;-59
2022/10/18 03:28:09;;;;;;;9.60;6.78;;;10.90;99.90;;;;;;5038025;28;20052;-59
2022/10/18 03:30:35;;;;;;;24.40;7.68;;;10.90;99.90;;;;;;5040043;28;20102;-59
2022/10/18 03:33:00;;;;;;;6.97;6.38;;;10.90;99.90;;;;;;5038211;28;20076;-60
2022/10/18 03:35:26;;;;;;;9.40;6.20;;;10.90;99.90;;;;;;5040170;28;20032;-60
2022/10/18 03:37:52;;;;;;;7.78;5.30;;;10.90;99.90;;;;;;5039809;28;20032;-59
2022/10/18 03:40:17;;;;;;;9.82;6.25;;;10.80;99.90;;;;;;5039178;28;20024;-60
2022/10/18 03:42:43;;;;;;;9.82;7.20;;;10.90;99.90;;;;;;5042136;28;20777;-60
2022/10/18 03:45:09;;;;;;;10.90;9.70;;;10.80;99.90;;;;;;5039617;28;20052;-59
2022/10/18 03:47:34;;;;;;;9.75;8.85;;;10.90;99.90;;;;;;5044176;28;20128;-59
2022/10/18 03:50:00;;;;;;;14.18;9.25;;;10.90;99.90;;;;;;5039539;28;20397;-58
2022/10/18 03:52:25;;;;;;;12.90;9.02;;;11.00;99.90;;;;;;5040730;28;20018;-59
2022/10/18 03:54:51;;;;;;;10.38;8.95;;;11.00;99.90;;;;;;5038211;28;20029;-59
2022/10/18 03:57:16;;;;;;;12.48;10.10;;;11.00;99.90;;;;;;5035078;28;20099;-60
2022/10/18 03:59:42;;;;;;;17.23;10.27;;;11.00;99.90;;;;;;5040473;28;20021;-60
2022/10/18 04:02:08;;;;;;;21.05;11.68;;;11.00;99.90;;;;;;5038969;28;20087;-60
2022/10/18 04:04:33;;;;;;;23.75;14.45;;;11.10;99.90;;;;;;5036695;28;20099;-60
2022/10/18 04:06:59;;;;;;;19.20;14.32;;;11.10;99.90;;;;;;5039132;28;20028;-59
2022/10/18 04:09:25;;;;;;;15.85;13.52;;;11.20;99.90;;;;;;5042425;28;20033;-59
2022/10/18 04:11:51;;;;;;;14.88;13.40;;;11.30;99.90;;;;;;5039892;28;20091;-59
2022/10/18 04:14:17;;;;;;;19.80;13.43;;;11.30;99.90;;;;;;5041182;28;20425;-60
2022/10/18 04:16:42;;;;;;;16.05;14.35;;;11.40;99.90;;;;;;5037370;28;20045;-59
2022/10/18 04:19:08;;;;;;;11.93;10.07;;;11.40;99.90;;;;;;5035838;28;20188;-60
2022/10/18 04:21:34;;;;;;;10.05;8.85;;;11.40;99.90;;;;;;5040067;28;20033;-60
2022/10/18 04:24:00;;;;;;;11.52;7.47;;;11.40;99.90;;;;;;5038047;28;20530;-59
2022/10/18 04:26:25;;;;;;;12.07;7.35;;;11.30;99.90;;;;;;5038114;28;20232;-59
2022/10/18 04:28:51;;;;;;;7.55;6.95;;;11.30;99.90;;;;;;5040009;28;20033;-60
2022/10/18 04:31:16;;;;;;;7.55;6.85;;;11.20;99.90;;;;;;5040445;28;20025;-59
2022/10/18 04:33:42;;;;;;;8.05;7.05;;;11.20;99.90;;;;;;5036366;28;20151;-59
2022/10/18 04:36:08;;;;;;;8.07;7.38;;;11.20;99.90;;;;;;5043498;28;20079;-59
2022/10/18 04:38:33;;;;;;;8.05;7.25;;;11.20;99.90;;;;;;5040280;28;20569;-59
2022/10/18 04:40:59;;;;;;;9.60;7.18;;;11.30;99.90;;;;;;5041688;28;20494;-60
2022/10/18 04:43:25;;;;;;;8.07;7.38;;;11.30;99.90;;;;;;5041401;28;20420;-59
2022/10/18 04:45:50;;;;;;;9.60;7.22;;;11.30;99.90;;;;;;5019993;28;20487;-59
2022/10/18 04:48:16;;;;;;;9.25;8.35;;;11.30;99.90;;;;;;5029556;28;20041;-58
2022/10/18 04:50:42;;;;;;;10.63;9.60;;;11.30;99.90;;;;;;5038732;28;20033;-60
2022/10/18 04:53:08;;;;;;;29.08;10.35;;;11.40;99.90;;;;;;5036307;28;20030;-58
2022/10/18 04:55:34;;;;;;;49.25;10.82;;;11.30;99.90;;;;;;5033814;28;20056;-63
2022/10/18 04:57:59;;;;;;;21.25;10.38;;;11.40;99.90;;;;;;5038392;28;20051;-62
2022/10/18 05:00:25;;;;;;;10.35;9.35;;;11.30;99.90;;;;;;5035344;28;20075;-63
2022/10/18 05:02:57;;;;;;;12.93;9.40;;;11.30;99.90;;;;;;5036615;28;20040;-58
2022/10/18 05:05:23;;;;;;;10.27;9.27;;;11.30;99.90;;;;;;5037554;28;20465;-60
2022/10/18 05:07:48;;;;;;;11.45;8.77;;;11.30;99.90;;;;;;5037042;28;20090;-60
2022/10/18 05:10:14;;;;;;;9.27;8.57;;;11.30;99.90;;;;;;5042138;28;20044;-58
2022/10/18 05:12:40;;;;;;;12.13;9.43;;;11.30;99.90;;;;;;5041125;28;20025;-59
2022/10/18 05:15:06;;;;;;;11.02;9.88;;;11.40;99.90;;;;;;5041090;28;20057;-60
2022/10/18 05:17:31;;;;;;;10.70;9.70;;;11.40;99.90;;;;;;5035640;28;20091;-59
2022/10/18 05:19:57;;;;;;;10.50;9.50;;;11.50;99.90;;;;;;5040402;28;20462;-60
2022/10/18 05:22:22;;;;;;;17.95;9.73;;;11.50;99.90;;;;;;5036250;28;20057;-59
2022/10/18 05:24:48;;;;;;;11.07;9.02;;;11.50;99.90;;;;;;5039314;28;20237;-60
2022/10/18 05:27:13;;;;;;;11.55;10.63;;;11.60;99.90;;;;;;5036184;28;20490;-59
2022/10/18 05:29:39;;;;;;;17.85;12.30;;;11.60;99.90;;;;;;5037838;28;20553;-61
2022/10/18 05:32:05;;;;;;;19.67;11.35;;;11.70;99.90;;;;;;5039688;28;20021;-60
2022/10/18 05:34:31;;;;;;;12.73;11.52;;;11.70;99.90;;;;;;5038260;28;20087;-59
2022/10/18 05:36:57;;;;;;;14.27;12.60;;;11.80;99.90;;;;;;5037109;28;20052;-59
2022/10/18 05:39:22;;;;;;;13.18;12.07;;;11.80;99.90;;;;;;5038613;28;20033;-59
2022/10/18 05:41:48;;;;;;;14.75;13.18;;;11.90;99.90;;;;;;5045648;28;20034;-60
2022/10/18 05:44:14;;;;;;;14.73;13.20;;;11.90;99.90;;;;;;5037025;28;20042;-60
2022/10/18 05:46:39;;;;;;;14.77;13.20;;;12.00;99.90;;;;;;5040919;28;20039;-59
2022/10/18 05:49:05;;;;;;;14.45;13.13;;;12.00;99.90;;;;;;5042889;28;20036;-59
2022/10/18 05:51:31;;;;;;;14.77;13.45;;;12.10;99.90;;;;;;5042030;28;20033;-60
2022/10/18 05:53:57;;;;;;;20.77;13.75;;;12.10;99.90;;;;;;5042075;28;20087;-60
2022/10/18 05:56:23;;;;;;;14.82;13.35;;;12.10;99.90;;;;;;5043752;28;20820;-59
2022/10/18 05:58:50;;;;;;;15.55;13.20;;;12.20;99.90;;;;;;5038986;28;20036;-59
2022/10/18 06:01:16;;;;;;;14.75;13.20;;;12.20;99.90;;;;;;5033033;28;20501;-60
2022/10/18 06:03:41;;;;;;;15.13;13.75;;;12.30;99.90;;;;;;5038555;28;20025;-59
2022/10/18 06:06:09;;;;;;;27.38;15.32;;;12.30;99.90;;;;;;5039317;28;20049;-59
2022/10/18 06:08:36;;;;;;;15.27;13.73;;;12.30;99.90;;;;;;5035185;28;20021;-60
2022/10/18 06:11:10;;;;;;;13.70;12.30;;;12.30;99.90;;;;;;5040753;28;20029;-59
2022/10/18 06:13:41;;;;;;;14.50;13.20;;;12.30;99.90;;;;;;5029641;28;20067;-59
2022/10/18 06:16:07;;;;;;;15.90;14.18;;;12.30;99.90;;;;;;4949913;28;20022;-60
2022/10/18 06:18:33;;;;;;;16.25;14.65;;;12.40;99.90;;;;;;5025518;28;20128;-60
2022/10/18 06:20:58;;;;;;;18.98;15.43;;;12.30;99.90;;;;;;5023229;28;20104;-60
2022/10/18 06:23:26;;;;;;;20.58;14.55;;;12.40;99.90;;;;;;5040778;28;20025;-60
2022/10/18 06:25:51;;;;;;;20.13;15.55;;;12.40;99.90;;;;;;5043278;28;20041;-60
2022/10/18 06:28:17;;;;;;;17.40;15.50;;;12.40;99.90;;;;;;5042689;28;20512;-59
2022/10/18 06:30:43;;;;;;;18.88;17.10;;;12.40;99.90;;;;;;5040734;28;20033;-59
2022/10/18 06:33:10;;;;;;;18.33;16.27;;;12.40;99.90;;;;;;5038500;28;20408;-60
2022/10/18 06:35:36;;;;;;;18.58;16.73;;;12.50;99.90;;;;;;5040188;28;20025;-59
2022/10/18 06:38:02;;;;;;;21.63;17.98;;;12.50;99.90;;;;;;5039270;28;20028;-61
2022/10/18 06:40:29;;;;;;;22.17;17.55;;;12.50;99.90;;;;;;5037337;28;20026;-60
2022/10/18 06:42:55;;;;;;;41.25;21.45;;;12.60;99.90;;;;;;5040328;28;20045;-60
2022/10/18 06:45:21;;;;;;;39.83;22.45;;;12.60;99.90;;;;;;5042814;28;20030;-59
2022/10/18 06:47:46;;;;;;;42.03;22.25;;;12.60;99.90;;;;;;5041610;28;20048;-59
2022/10/18 06:50:12;;;;;;;44.63;24.58;;;12.70;99.90;;;;;;5045039;28;20029;-59
2022/10/18 06:52:38;;;;;;;42.42;24.92;;;12.70;99.90;;;;;;5037316;28;20461;-59
2022/10/18 06:55:04;;;;;;;36.10;22.95;;;12.80;99.90;;;;;;5042667;28;20029;-59
2022/10/18 06:57:30;;;;;;;33.75;22.38;;;12.90;99.90;;;;;;5041503;28;20824;-59
2022/10/18 06:59:56;;;;;;;44.45;24.20;;;12.90;99.90;;;;;;5038008;28;20052;-59
2022/10/18 07:02:22;;;;;;;40.50;22.80;;;13.00;99.90;;;;;;5042662;28;20036;-59
2022/10/18 07:04:47;;;;;;;39.55;22.70;;;13.00;99.90;;;;;;5034679;28;20083;-60
2022/10/18 07:07:13;;;;;;;35.47;22.20;;;13.00;99.90;;;;;;5040823;28;20049;-59
2022/10/18 07:09:39;;;;;;;38.22;22.98;;;13.10;99.90;;;;;;5041210;28;20033;-60
2022/10/18 07:12:05;;;;;;;34.88;23.13;;;13.20;99.90;;;;;;5042426;28;20055;-59
2022/10/18 07:14:30;;;;;;;27.45;21.58;;;13.20;99.90;;;;;;5043440;28;20497;-59
2022/10/18 07:16:58;;;;;;;28.83;21.10;;;13.30;99.90;;;;;;5042099;28;20037;-59
2022/10/18 07:19:24;;;;;;;30.65;21.20;;;13.30;99.90;;;;;;5040658;28;20037;-57
2022/10/18 07:21:49;;;;;;;26.08;19.95;;;13.30;99.90;;;;;;5046455;28;20052;-58
2022/10/18 07:24:15;;;;;;;25.52;19.27;;;13.30;99.90;;;;;;5040809;28;20036;-60
2022/10/18 07:26:41;;;;;;;22.13;19.17;;;13.30;99.90;;;;;;5041909;28;20139;-59
2022/10/18 07:29:09;;;;;;;20.48;18.42;;;13.30;99.90;;;;;;5039660;28;20036;-60
2022/10/18 07:31:37;;;;;;;24.35;19.63;;;13.30;99.90;;;;;;5037366;28;20033;-59
2022/10/18 07:34:04;;;;;;;21.02;18.05;;;13.30;99.90;;;;;;5037129;28;20044;-60
2022/10/18 07:36:29;;;;;;;20.05;17.88;;;13.40;99.90;;;;;;5041073;28;20528;-59
2022/10/18 07:38:55;;;;;;;19.27;17.33;;;13.60;99.90;;;;;;5022484;28;20038;-60
2022/10/18 07:41:21;;;;;;;18.63;16.88;;;13.70;99.90;;;;;;5041151;28;20086;-60
2022/10/18 07:43:49;;;;;;;17.58;16.10;;;13.90;99.90;;;;;;5037798;28;20038;-59
2022/10/18 07:46:16;;;;;;;18.27;16.67;;;14.10;99.90;;;;;;5038501;28;20037;-59
2022/10/18 07:48:42;;;;;;;16.00;14.57;;;14.30;99.90;;;;;;5036387;28;20041;-60
2022/10/18 07:51:08;;;;;;;16.75;15.32;;;14.40;99.90;;;;;;5041301;28;20025;-59
2022/10/18 07:53:34;;;;;;;16.00;14.63;;;14.40;99.90;;;;;;5039443;28;20025;-60
2022/10/18 07:56:02;;;;;;;17.45;15.88;;;14.50;99.90;;;;;;5038783;28;20025;-60
2022/10/18 07:58:27;;;;;;;16.25;14.88;;;14.60;99.90;;;;;;5026662;28;20029;-59
2022/10/18 08:00:53;;;;;;;15.57;14.18;;;14.60;99.90;;;;;;5035137;28;20465;-59
2022/10/18 08:03:19;;;;;;;15.13;13.73;;;14.70;99.90;;;;;;5039185;28;20457;-60
2022/10/18 08:05:51;;;;;;;14.63;13.43;;;14.80;99.90;;;;;;5038981;28;20026;-59
2022/10/18 08:08:17;;;;;;;14.65;13.23;;;14.90;99.90;;;;;;5038454;28;20486;-60
2022/10/18 08:10:43;;;;;;;14.15;12.95;;;14.90;99.90;;;;;;5037762;28;20040;-60
2022/10/18 08:13:08;;;;;;;14.13;12.93;;;14.80;99.90;;;;;;5035261;28;20022;-58
2022/10/18 08:15:34;;;;;;;15.60;14.23;;;14.70;99.90;;;;;;5039282;28;20493;-59
2022/10/18 08:17:59;;;;;;;16.08;14.77;;;14.70;99.90;;;;;;5041087;28;20061;-59
2022/10/18 08:20:25;;;;;;;15.52;14.15;;;14.80;99.90;;;;;;5040306;28;20489;-59
2022/10/18 08:22:51;;;;;;;18.00;16.23;;;14.80;99.90;;;;;;5039011;28;20033;-59
2022/10/18 08:25:16;;;;;;;14.18;13.07;;;14.90;99.90;;;;;;5041021;28;20442;-59
2022/10/18 08:27:42;;;;;;;14.75;13.50;;;15.00;99.90;;;;;;5040255;28;20456;-59
2022/10/18 08:30:08;;;;;;;14.25;12.85;;;15.10;99.90;;;;;;5038296;28;20682;-60
2022/10/18 08:32:34;;;;;;;13.25;12.05;;;15.30;99.90;;;;;;5040205;28;20079;-60
2022/10/18 08:35:00;;;;;;;11.45;10.35;;;15.60;99.90;;;;;;5040380;28;20495;-60
2022/10/18 08:37:26;;;;;;;12.07;11.18;;;15.70;99.90;;;;;;5037223;28;20033;-60
2022/10/18 08:39:51;;;;;;;11.88;10.98;;;15.90;99.90;;;;;;5038283;28;20033;-60
2022/10/18 08:42:38;;;;;;;11.75;10.88;;;16.20;99.90;;;;;;5038897;28;20026;-59
2022/10/18 08:45:05;;;;;;;10.50;9.60;;;16.40;99.90;;;;;;5038985;28;20037;-60
2022/10/18 08:47:38;;;;;;;10.40;9.50;;;16.60;99.90;;;;;;5030687;28;20373;-60
2022/10/18 08:50:20;;;;;;;11.32;10.38;;;16.70;99.90;;;;;;5036921;28;20116;-60
2022/10/18 08:52:48;;;;;;;10.25;9.45;;;16.70;99.90;;;;;;5020671;28;20029;-60
2022/10/18 08:55:20;;;;;;;10.70;9.70;;;16.60;99.90;;;;;;5036832;28;20022;-59
2022/10/18 08:57:47;;;;;;;10.63;9.70;;;16.40;99.90;;;;;;5040549;28;20119;-60
2022/10/18 09:00:15;;;;;;;11.45;10.48;;;16.30;99.90;;;;;;5041344;28;20514;-60
2022/10/18 09:02:53;;;;;;;11.90;10.80;;;16.30;99.90;;;;;;5035665;28;20025;-60
2022/10/18 09:05:34;;;;;;;15.90;10.40;;;16.20;99.90;;;;;;5039942;28;20045;-60
2022/10/18 09:08:37;;;;;;;11.87;10.47;;;16.20;99.90;;;;;;5036462;28;20459;-59
2022/10/18 09:11:20;;;;;;;11.55;10.52;;;16.10;99.90;;;;;;5011519;28;20270;-60
2022/10/18 09:13:58;;;;;;;11.93;10.93;;;16.10;99.90;;;;;;5038932;28;20107;-60
2022/10/18 09:16:31;;;;;;;11.35;10.27;;;16.20;99.90;;;;;;5035958;28;20029;-60
2022/10/18 09:19:26;;;;;;;14.63;10.57;;;16.40;99.90;;;;;;5035855;28;20543;-60
2022/10/18 09:22:11;;;;;;;10.77;9.88;;;16.70;99.90;;;;;;5021883;28;20087;-61
2022/10/18 09:24:56;;;;;;;10.68;9.73;;;17.20;99.90;;;;;;5037794;28;20167;-60
2022/10/18 09:27:49;;;;;;;10.20;9.00;;;17.60;99.90;;;;;;5032051;28;20036;-61
2022/10/18 09:30:33;;;;;;;9.77;8.45;;;17.80;99.90;;;;;;5031411;28;20029;-60
2022/10/18 09:33:06;;;;;;;9.55;8.75;;;17.80;99.90;;;;;;5036755;28;20375;-61
2022/10/18 09:36:07;;;;;;;9.27;8.45;;;17.90;99.90;;;;;;5038727;28;20159;-59
2022/10/18 09:38:44;;;;;;;9.37;8.13;;;17.90;99.90;;;;;;5015270;28;20033;-59
2022/10/18 09:41:23;;;;;;;9.30;8.45;;;17.90;99.90;;;;;;5025106;28;20255;-61
2022/10/18 09:44:07;;;;;;;8.75;8.02;;;17.90;99.90;;;;;;5035334;28;20604;-59
2022/10/18 09:46:39;;;;;;;14.85;8.25;;;18.10;99.90;;;;;;5033944;28;20033;-60
2022/10/18 09:49:10;;;;;;;8.07;7.38;;;18.30;99.90;;;;;;5031467;28;20041;-59
2022/10/18 09:51:39;;;;;;;7.68;7.03;;;18.60;99.90;;;;;;5031902;28;20024;-58
2022/10/18 09:54:20;;;;;;;7.20;6.70;;;18.90;99.90;;;;;;5037256;28;20025;-59
2022/10/18 09:57:11;;;;;;;8.07;7.28;;;19.20;99.90;;;;;;5043312;28;20117;-60
2022/10/18 09:59:41;;;;;;;;;;;19.40;99.90;;;;;;5037919;28;20024;-60
2022/10/18 10:02:15;;;;;;;6.88;6.28;;;19.50;99.90;;;;;;5042158;28;19907;-60
2022/10/18 10:04:41;;;;;;;6.95;6.35;;;19.70;99.90;;;;;;5039506;28;20041;-58
2022/10/18 10:07:23;;;;;;;9.70;6.68;;;19.70;99.90;;;;;;5043217;28;20053;-60
2022/10/18 10:10:25;;;;;;;6.80;6.20;;;19.60;99.90;;;;;;5042256;28;20033;-61
2022/10/18 10:13:23;;;;;;;7.75;6.50;;;19.50;99.90;;;;;;5041030;28;20159;-59
2022/10/18 10:16:02;;;;;;;10.77;6.93;;;19.60;99.90;;;;;;5038098;28;20032;-60
2022/10/18 10:18:30;;;;;;;8.20;6.32;;;19.40;99.90;;;;;;5039033;28;20026;-61
2022/10/18 10:21:01;;;;;;;7.22;6.05;;;19.30;99.90;;;;;;5038608;28;20029;-60
2022/10/18 10:23:43;;;;;;;6.50;5.82;;;19.40;99.90;;;;;;5039880;28;20554;-60
2022/10/18 10:26:31;;;;;;;8.13;5.97;;;19.40;99.90;;;;;;5036607;28;20048;-60
2022/10/18 10:28:56;;;;;;;8.57;6.82;;;19.50;99.90;;;;;;5039391;28;20068;-61
2022/10/18 10:31:26;;;;;;;6.50;5.90;;;19.70;99.90;;;;;;5041193;28;20053;-60
2022/10/18 10:34:01;;;;;;;9.73;6.00;;;19.80;99.90;;;;;;5020985;28;20037;-61
2022/10/18 10:36:27;;;;;;;10.55;6.18;;;19.90;99.90;;;;;;5040448;28;20025;-61
2022/10/18 10:39:10;;;;;;;6.18;5.50;;;19.90;99.90;;;;;;5041900;28;20021;-60
2022/10/18 10:41:39;;;;;;;5.80;5.20;;;19.80;99.90;;;;;;5040467;28;20064;-60
2022/10/18 10:44:21;;;;;;;6.53;5.95;;;19.70;99.90;;;;;;5040053;28;20729;-60
2022/10/18 10:46:51;;;;;;;7.05;6.20;;;19.50;99.90;;;;;;5037527;28;20504;-59
2022/10/18 10:49:44;;;;;;;10.18;6.82;;;19.10;99.90;;;;;;5038977;28;20052;-60
2022/10/18 10:52:22;;;;;;;10.55;8.07;;;18.80;99.90;;;;;;5038101;28;20057;-61
2022/10/18 10:54:48;;;;;;;9.98;8.98;;;18.20;99.90;;;;;;5040263;28;20447;-60
2022/10/18 10:57:15;;;;;;;14.63;9.80;;;17.70;99.90;;;;;;5037950;28;20034;-60
2022/10/18 10:59:45;;;;;;;14.45;11.98;;;17.30;99.90;;;;;;5035566;28;20652;-60
2022/10/18 11:02:16;;;;;;;12.50;11.40;;;17.00;99.90;;;;;;5039094;28;20039;-60
2022/10/18 11:04:43;;;;;;;;;;;16.80;99.90;;;;;;5041242;28;20040;-60
2022/10/18 11:07:08;;;;;;;13.30;10.38;;;16.70;99.90;;;;;;5039219;28;19912;-60
2022/10/18 11:09:52;;;;;;;12.43;10.77;;;16.60;99.90;;;;;;5026635;28;20091;-60
2022/10/18 11:12:35;;;;;;;15.05;11.82;;;16.50;99.90;;;;;;5040230;28;20647;-60
2022/10/18 11:15:19;;;;;;;15.60;10.90;;;16.50;99.90;;;;;;5027834;28;20117;-59
2022/10/18 11:17:59;;;;;;;18.25;11.25;;;16.50;99.90;;;;;;5022474;28;20025;-60
2022/10/18 11:20:37;;;;;;;12.10;10.82;;;16.50;99.90;;;;;;5039133;28;20010;-60
2022/10/18 11:23:11;;;;;;;12.48;11.25;;;16.50;99.90;;;;;;5039723;28;20041;-60
2022/10/18 11:25:42;;;;;;;13.95;12.48;;;16.60;99.90;;;;;;5046056;28;20036;-60
2022/10/18 11:28:34;;;;;;;13.65;12.05;;;16.60;99.90;;;;;;5044611;28;20025;-60
2022/10/18 11:31:17;;;;;;;13.10;11.75;;;16.70;99.90;;;;;;5007574;28;20021;-60
2022/10/18 11:34:09;;;;;;;12.88;11.65;;;16.80;99.90;;;;;;5033306;28;20033;-60
2022/10/18 11:36:53;;;;;;;;;;;16.90;99.90;;;;;;5028153;28;20032;-61
2022/10/18 11:39:22;;;;;;;12.48;10.30;;;17.10;99.90;;;;;;5038442;28;20000;-61
2022/10/18 11:42:07;;;;;;;12.85;10.50;;;17.30;99.90;;;;;;5039045;28;20480;-61
2022/10/18 11:45:00;;;;;;;12.50;10.65;;;17.40;99.90;;;;;;5039947;28;20025;-60
2022/10/18 11:47:52;;;;;;;10.63;8.45;;;17.60;99.90;;;;;;5037778;28;20013;-60
2022/10/18 11:50:25;;;;;;;10.27;8.15;;;17.70;99.90;;;;;;5037353;28;20048;-60
2022/10/18 11:53:18;;;;;;;9.30;7.75;;;17.70;99.90;;;;;;5034841;28;20061;-60
2022/10/18 11:55:50;;;;;;;7.22;6.55;;;17.60;99.90;;;;;;5038157;28;20065;-60
2022/10/18 11:58:40;;;;;;;9.05;7.03;;;17.60;99.90;;;;;;5038833;28;20034;-60
2022/10/18 12:01:16;;;;;;;13.07;7.75;;;17.60;99.90;;;;;;5038591;28;20517;-60
2022/10/18 12:04:01;;;;;;;7.97;6.75;;;17.60;99.90;;;;;;5038942;28;20172;-60
2022/10/18 12:06:36;;;;;;;8.95;8.07;;;17.50;99.90;;;;;;5040880;28;20405;-60
2022/10/18 12:09:10;;;;;;;13.45;7.95;;;17.50;99.90;;;;;;5041068;28;20029;-59
2022/10/18 12:11:45;;;;;;;8.90;7.97;;;17.50;99.90;;;;;;5037631;28;20025;-60
2022/10/18 12:14:25;;;;;;;9.88;7.63;;;17.40;99.90;;;;;;5040338;28;20029;-60
2022/10/18 12:16:54;;;;;;;9.57;8.10;;;17.40;99.90;;;;;;5039029;28;20668;-59
2022/10/18 12:19:23;;;;;;;10.38;8.35;;;17.40;99.90;;;;;;5037860;28;20694;-60
2022/10/18 12:21:50;;;;;;;13.65;8.27;;;17.50;99.90;;;;;;5041094;28;20072;-59
2022/10/18 12:24:20;;;;;;;9.23;8.43;;;17.40;99.90;;;;;;5039285;28;20029;-60
2022/10/18 12:26:48;;;;;;;10.88;9.25;;;17.40;99.90;;;;;;5038984;28;20037;-60
2022/10/18 12:29:41;;;;;;;9.85;8.93;;;17.30;99.90;;;;;;5043176;28;20033;-59
2022/10/18 12:32:13;;;;;;;10.18;9.35;;;17.30;99.90;;;;;;5038180;28;20112;-60
2022/10/18 12:34:56;;;;;;;11.10;10.10;;;17.30;99.90;;;;;;5042425;28;20052;-60
2022/10/18 12:37:50;;;;;;;13.88;11.10;;;17.20;99.90;;;;;;5039467;28;20037;-59
2022/10/18 12:40:20;;;;;;;11.65;10.75;;;17.10;99.90;;;;;;5037982;28;20497;-60
2022/10/18 12:42:48;;;;;;;14.68;12.75;;;17.10;99.90;;;;;;5045238;28;20052;-58
2022/10/18 12:45:34;;;;;;;14.07;12.73;;;17.10;99.90;;;;;;5041696;28;20036;-59
2022/10/18 12:48:07;;;;;;;14.18;12.85;;;17.10;99.90;;;;;;5040268;28;20040;-60
2022/10/18 12:50:41;;;;;;;16.20;14.13;;;17.10;99.90;;;;;;5038331;28;20021;-59
2022/10/18 12:53:27;;;;;;;16.23;13.55;;;17.10;99.90;;;;;;5039416;28;20037;-59